createdAt,value
2023-03-02T00:01:49.472Z,3.32
2023-03-02T00:04:15.944Z,3.24
2023-03-02T00:06:42.577Z,3.26
2023-03-02T00:09:09.032Z,3.30
2023-03-02T00:11:35.421Z,3.43
2023-03-02T00:14:01.838Z,3.44
2023-03-02T00:16:28.272Z,3.46
2023-03-02T00:18:54.728Z,3.38
2023-03-02T00:21:21.152Z,3.36
2023-03-02T00:23:47.539Z,3.38
2023-03-02T00:26:14.513Z,3.26
2023-03-02T00:28:40.954Z,3.28
2023-03-02T00:31:07.458Z,3.30
2023-03-02T00:33:33.934Z,3.33
2023-03-02T00:36:00.424Z,3.32
2023-03-02T00:38:26.941Z,3.29
2023-03-02T00:40:53.308Z,3.29
2023-03-02T00:43:19.689Z,3.31
2023-03-02T00:45:46.066Z,3.40
2023-03-02T00:48:12.544Z,3.56
2023-03-02T00:50:40.514Z,3.62
2023-03-02T00:53:06.895Z,3.74
2023-03-02T00:55:33.348Z,3.71
2023-03-02T00:57:59.874Z,3.60
2023-03-02T01:00:26.772Z,3.56
2023-03-02T01:02:53.399Z,3.45
2023-03-02T01:05:19.969Z,3.32
2023-03-02T01:07:46.549Z,3.33
2023-03-02T01:10:12.961Z,3.34
2023-03-02T01:12:39.352Z,3.34
2023-03-02T01:15:05.788Z,3.39
2023-03-02T01:17:32.172Z,3.38
2023-03-02T01:19:58.577Z,3.26
2023-03-02T01:22:25.036Z,3.19
2023-03-02T01:24:51.518Z,3.26
2023-03-02T01:27:17.894Z,3.14
2023-03-02T01:29:44.344Z,3.16
2023-03-02T01:32:10.837Z,3.24
2023-03-02T01:34:37.361Z,3.24
2023-03-02T01:37:03.761Z,3.25
2023-03-02T01:39:32.347Z,3.26
2023-03-02T01:41:58.778Z,3.23
2023-03-02T01:44:25.197Z,3.25
2023-03-02T01:46:51.895Z,3.23
2023-03-02T01:49:18.328Z,3.24
2023-03-02T01:51:44.753Z,3.24
2023-03-02T01:54:11.280Z,3.21
2023-03-02T01:56:37.711Z,3.37
2023-03-02T01:59:04.133Z,3.27
2023-03-02T02:01:30.693Z,3.20
2023-03-02T02:03:57.323Z,3.11
2023-03-02T02:06:23.845Z,3.11
2023-03-02T02:08:50.267Z,3.12
2023-03-02T02:11:17.256Z,3.06
2023-03-02T02:13:43.694Z,3.07
2023-03-02T02:16:10.202Z,3.07
2023-03-02T02:18:36.668Z,3.08
2023-03-02T02:21:03.108Z,3.06
2023-03-02T02:23:29.539Z,3.05
2023-03-02T02:25:56.406Z,3.04
2023-03-02T02:28:22.878Z,3.01
2023-03-02T02:30:49.341Z,2.97
2023-03-02T02:33:15.768Z,2.92
2023-03-02T02:35:42.639Z,2.84
2023-03-02T02:38:11.936Z,2.78
2023-03-02T02:40:38.320Z,2.70
2023-03-02T02:43:04.752Z,2.64
2023-03-02T02:45:31.181Z,2.51
2023-03-02T02:47:57.641Z,2.49
2023-03-02T02:50:25.468Z,2.45
2023-03-02T02:52:52.110Z,2.45
2023-03-02T02:55:18.555Z,2.40
2023-03-02T02:57:44.992Z,2.40
2023-03-02T03:00:11.494Z,2.37
2023-03-02T03:02:37.915Z,2.35
2023-03-02T03:05:04.439Z,2.30
2023-03-02T03:07:30.905Z,2.28
2023-03-02T03:09:57.939Z,2.28
2023-03-02T03:12:24.580Z,2.24
2023-03-02T03:14:53.244Z,2.20
2023-03-02T03:17:19.681Z,2.19
2023-03-02T03:19:46.122Z,2.13
2023-03-02T03:22:12.493Z,2.08
2023-03-02T03:24:39.355Z,2.08
2023-03-02T03:27:06.045Z,2.04
2023-03-02T03:29:32.604Z,2.20
2023-03-02T03:31:59.084Z,2.21
2023-03-02T03:34:25.550Z,2.12
2023-03-02T03:36:51.950Z,2.06
2023-03-02T03:39:18.381Z,2.05
2023-03-02T03:41:44.800Z,2.01
2023-03-02T03:44:11.254Z,1.98
2023-03-02T03:46:37.721Z,1.99
2023-03-02T03:49:04.118Z,2.00
2023-03-02T03:51:30.555Z,1.87
2023-03-02T03:53:57.098Z,1.87
2023-03-02T03:56:23.483Z,1.75
2023-03-02T03:58:49.936Z,1.80
2023-03-02T04:01:16.424Z,1.81
2023-03-02T04:03:42.981Z,1.70
2023-03-02T04:06:09.416Z,1.61
2023-03-02T04:08:35.857Z,1.57
2023-03-02T04:11:02.295Z,1.62
2023-03-02T04:13:28.699Z,1.65
2023-03-02T04:15:55.225Z,1.53
2023-03-02T04:18:21.695Z,1.45
2023-03-02T04:20:48.136Z,1.39
2023-03-02T04:23:14.563Z,1.31
2023-03-02T04:25:41.022Z,1.22
2023-03-02T04:28:07.515Z,0.94
2023-03-02T04:30:33.994Z,0.82
2023-03-02T04:33:00.672Z,0.96
2023-03-02T04:35:27.526Z,0.86
2023-03-02T04:37:59.522Z,0.92
2023-03-02T04:40:26.010Z,1.00
2023-03-02T04:42:52.437Z,1.00
2023-03-02T04:45:18.958Z,1.11
2023-03-02T04:47:45.492Z,1.15
2023-03-02T04:50:11.924Z,1.21
2023-03-02T04:52:38.442Z,1.24
2023-03-02T04:55:04.902Z,1.22
2023-03-02T04:57:31.338Z,1.34
2023-03-02T04:59:57.760Z,1.09
2023-03-02T05:02:24.157Z,1.16
2023-03-02T05:04:50.688Z,1.22
2023-03-02T05:07:17.145Z,1.19
2023-03-02T05:09:43.635Z,1.18
2023-03-02T05:12:10.515Z,1.19
2023-03-02T05:14:37.351Z,1.27
2023-03-02T05:17:05.948Z,1.19
2023-03-02T05:19:32.347Z,1.16
2023-03-02T05:21:58.824Z,0.94
2023-03-02T05:24:25.258Z,0.94
2023-03-02T05:26:52.030Z,0.88
2023-03-02T05:29:18.434Z,0.94
2023-03-02T05:31:44.973Z,0.79
2023-03-02T05:34:11.917Z,0.81
2023-03-02T05:36:38.616Z,0.87
2023-03-02T05:39:05.173Z,0.59
2023-03-02T05:41:31.706Z,0.73
2023-03-02T05:43:58.168Z,0.64
2023-03-02T05:46:24.768Z,0.61
2023-03-02T05:48:51.292Z,0.45
2023-03-02T05:51:17.710Z,0.35
2023-03-02T05:53:44.233Z,0.49
2023-03-02T05:56:10.776Z,0.64
2023-03-02T05:58:37.279Z,0.67
2023-03-02T06:01:08.529Z,0.64
2023-03-02T06:03:35.027Z,0.62
2023-03-02T06:06:01.582Z,0.71
2023-03-02T06:08:28.052Z,0.72
2023-03-02T06:10:54.457Z,0.81
2023-03-02T06:13:21.861Z,0.90
2023-03-02T06:15:48.310Z,0.88
2023-03-02T06:18:14.722Z,0.91
2023-03-02T06:20:41.291Z,0.99
2023-03-02T06:23:07.733Z,1.04
2023-03-02T06:25:34.174Z,0.99
2023-03-02T06:28:00.640Z,1.01
2023-03-02T06:30:27.233Z,1.05
2023-03-02T06:32:53.715Z,0.98
2023-03-02T06:35:20.257Z,1.03
2023-03-02T06:37:46.690Z,1.12
2023-03-02T06:40:13.121Z,1.14
2023-03-02T06:42:39.519Z,1.18
2023-03-02T06:45:05.916Z,1.28
2023-03-02T06:47:32.369Z,1.24
2023-03-02T06:49:58.852Z,1.06
2023-03-02T06:52:25.617Z,1.11
2023-03-02T06:54:52.142Z,1.29
2023-03-02T06:57:18.856Z,1.45
2023-03-02T06:59:45.324Z,1.55
2023-03-02T07:02:11.810Z,1.65
2023-03-02T07:04:38.230Z,1.74
2023-03-02T07:07:04.652Z,1.62
2023-03-02T07:09:31.364Z,1.68
2023-03-02T07:11:57.853Z,1.85
2023-03-02T07:14:24.246Z,1.86
2023-03-02T07:16:50.734Z,1.89
2023-03-02T07:19:17.218Z,1.89
2023-03-02T07:21:43.613Z,1.91
2023-03-02T07:24:10.104Z,2.05
2023-03-02T07:26:36.611Z,2.13
2023-03-02T07:29:03.074Z,2.00
2023-03-02T07:31:29.524Z,2.28
2023-03-02T07:33:56.001Z,2.13
2023-03-02T07:36:22.468Z,2.07
2023-03-02T07:38:48.935Z,2.06
2023-03-02T07:41:15.532Z,2.29
2023-03-02T07:43:41.925Z,2.35
2023-03-02T07:46:08.431Z,2.37
2023-03-02T07:48:34.949Z,2.32
2023-03-02T07:51:01.325Z,2.19
2023-03-02T07:53:27.732Z,2.11
2023-03-02T07:55:54.226Z,2.09
2023-03-02T07:58:20.622Z,2.33
2023-03-02T08:00:47.039Z,2.53
2023-03-02T08:03:13.575Z,2.38
2023-03-02T08:05:40.097Z,2.36
2023-03-02T08:08:09.375Z,2.25
2023-03-02T08:10:35.836Z,2.28
2023-03-02T08:13:02.303Z,2.39
2023-03-02T08:15:28.831Z,2.66
2023-03-02T08:17:55.254Z,2.92
2023-03-02T08:20:21.665Z,2.89
2023-03-02T08:22:48.146Z,2.90
2023-03-02T08:25:14.597Z,3.01
2023-03-02T08:27:41.009Z,3.14
2023-03-02T08:30:07.448Z,3.82
2023-03-02T08:32:33.829Z,4.29
2023-03-02T08:35:00.800Z,4.62
2023-03-02T08:37:27.188Z,4.60
2023-03-02T08:39:53.659Z,4.12
2023-03-02T08:42:20.078Z,4.18
2023-03-02T08:44:46.534Z,4.35
2023-03-02T08:47:12.949Z,4.27
2023-03-02T08:49:39.353Z,4.21
2023-03-02T08:52:05.805Z,4.17
2023-03-02T08:54:32.166Z,4.21
2023-03-02T08:56:58.642Z,4.07
2023-03-02T08:59:25.065Z,4.22
2023-03-02T09:01:51.522Z,4.27
2023-03-02T09:04:18.007Z,4.09
2023-03-02T09:06:44.508Z,4.29
2023-03-02T09:09:10.955Z,4.02
2023-03-02T09:11:37.415Z,3.94
2023-03-02T09:14:03.876Z,4.09
2023-03-02T09:16:30.399Z,4.06
2023-03-02T09:18:56.814Z,4.29
2023-03-02T09:21:23.222Z,4.08
2023-03-02T09:23:49.633Z,4.12
2023-03-02T09:26:16.042Z,4.18
2023-03-02T09:28:42.588Z,4.41
2023-03-02T09:31:09.049Z,4.49
2023-03-02T09:33:35.547Z,4.01
2023-03-02T09:36:02.080Z,4.14
2023-03-02T09:38:28.553Z,4.26
2023-03-02T09:40:55.172Z,4.33
2023-03-02T09:43:21.598Z,4.34
2023-03-02T09:45:48.068Z,4.37
2023-03-02T09:48:14.492Z,4.36
2023-03-02T09:50:40.938Z,4.45
2023-03-02T09:53:07.332Z,4.36
2023-03-02T09:55:33.807Z,4.50
2023-03-02T09:58:00.271Z,4.64
2023-03-02T10:00:26.657Z,4.71
2023-03-02T10:02:54.024Z,4.75
2023-03-02T10:05:20.515Z,4.56
2023-03-02T10:07:46.926Z,4.63
2023-03-02T10:10:13.337Z,4.53
2023-03-02T10:12:39.805Z,4.73
2023-03-02T10:15:06.210Z,4.58
2023-03-02T10:17:32.653Z,4.42
2023-03-02T10:19:59.069Z,4.58
2023-03-02T10:22:25.480Z,4.34
2023-03-02T10:24:53.538Z,4.23
2023-03-02T10:27:19.970Z,4.40
2023-03-02T10:29:46.429Z,4.38
2023-03-02T10:32:12.938Z,4.33
2023-03-02T10:34:39.440Z,4.32
2023-03-02T10:37:05.850Z,4.59
2023-03-02T10:39:32.321Z,4.55
2023-03-02T10:41:58.783Z,4.57
2023-03-02T10:44:25.224Z,4.73
2023-03-02T10:46:51.693Z,4.82
2023-03-02T10:49:21.065Z,4.79
2023-03-02T10:51:47.743Z,4.91
2023-03-02T10:54:14.209Z,4.74
2023-03-02T10:56:40.639Z,4.45
2023-03-02T10:59:07.078Z,4.42
2023-03-02T11:01:33.502Z,4.66
2023-03-02T11:03:59.981Z,4.84
2023-03-02T11:06:26.395Z,4.90
2023-03-02T11:08:52.854Z,5.01
2023-03-02T11:11:19.411Z,4.81
2023-03-02T11:13:45.875Z,4.92
2023-03-02T11:16:12.394Z,4.93
2023-03-02T11:18:38.795Z,4.83
2023-03-02T11:21:05.200Z,5.00
2023-03-02T11:23:31.627Z,4.96
2023-03-02T11:25:58.046Z,5.14
2023-03-02T11:28:24.446Z,5.23
2023-03-02T11:30:50.876Z,5.35
2023-03-02T11:33:17.293Z,5.33
2023-03-02T11:35:43.832Z,5.33
2023-03-02T11:38:10.311Z,5.41
2023-03-02T11:40:36.740Z,5.14
2023-03-02T11:43:03.178Z,5.12
2023-03-02T11:45:29.636Z,5.35
2023-03-02T11:48:02.561Z,5.37
2023-03-02T11:50:29.922Z,5.56
2023-03-02T11:52:56.416Z,5.52
2023-03-02T11:55:22.824Z,5.56
2023-03-02T11:57:49.238Z,6.04
2023-03-02T12:00:15.770Z,6.37
2023-03-02T12:02:42.237Z,6.44
2023-03-02T12:05:09.358Z,6.08
2023-03-02T12:07:35.765Z,5.98
2023-03-02T12:10:02.643Z,6.07
2023-03-02T12:12:29.140Z,6.09
2023-03-02T12:14:55.506Z,6.36
2023-03-02T12:17:21.976Z,6.42
2023-03-02T12:19:48.420Z,6.26
2023-03-02T12:22:14.938Z,6.18
2023-03-02T12:24:41.392Z,6.08
2023-03-02T12:27:07.823Z,6.17
2023-03-02T12:29:34.262Z,6.14
2023-03-02T12:32:00.771Z,6.23
2023-03-02T12:34:27.208Z,6.24
2023-03-02T12:36:53.686Z,6.33
2023-03-02T12:39:20.198Z,6.31
2023-03-02T12:41:46.760Z,6.51
2023-03-02T12:44:13.337Z,6.57
2023-03-02T12:46:39.855Z,6.63
2023-03-02T12:49:07.104Z,6.64
2023-03-02T12:51:34.394Z,6.78
2023-03-02T12:54:00.938Z,6.79
2023-03-02T12:56:27.432Z,7.05
2023-03-02T12:58:53.862Z,7.07
2023-03-02T13:01:26.809Z,7.10
2023-03-02T13:03:53.359Z,7.13
2023-03-02T13:06:20.662Z,6.94
2023-03-02T13:08:47.131Z,7.09
2023-03-02T13:11:13.633Z,7.13
2023-03-02T13:13:40.356Z,7.15
2023-03-02T13:16:06.790Z,7.19
2023-03-02T13:18:33.394Z,7.29
2023-03-02T13:21:00.072Z,7.12
2023-03-02T13:23:26.659Z,7.19
2023-03-02T13:25:53.141Z,7.29
2023-03-02T13:28:19.574Z,7.25
2023-03-02T13:30:46.054Z,7.40
2023-03-02T13:33:12.535Z,7.43
2023-03-02T13:35:39.047Z,7.55
2023-03-02T13:38:05.689Z,7.49
2023-03-02T13:40:32.181Z,7.54
2023-03-02T13:42:58.619Z,7.73
2023-03-02T13:45:25.122Z,7.76
2023-03-02T13:47:51.732Z,7.82
2023-03-02T13:50:18.185Z,7.82
2023-03-02T13:52:44.657Z,7.82
2023-03-02T13:55:11.294Z,7.85
2023-03-02T13:57:37.705Z,7.97
2023-03-02T14:00:04.142Z,8.08
2023-03-02T14:02:30.609Z,8.12
2023-03-02T14:04:59.434Z,8.00
2023-03-02T14:07:26.061Z,8.26
2023-03-02T14:09:52.481Z,8.22
2023-03-02T14:12:19.014Z,8.27
2023-03-02T14:14:48.553Z,8.29
2023-03-02T14:17:15.048Z,8.34
2023-03-02T14:19:41.442Z,8.38
2023-03-02T14:22:07.977Z,8.54
2023-03-02T14:24:34.595Z,8.58
2023-03-02T14:27:01.221Z,8.66
2023-03-02T14:29:27.843Z,8.59
2023-03-02T14:31:54.407Z,8.82
2023-03-02T14:34:20.941Z,9.11
2023-03-02T14:36:47.412Z,9.33
2023-03-02T14:39:13.847Z,9.43
2023-03-02T14:41:52.421Z,9.23
2023-03-02T14:44:19.764Z,9.33
2023-03-02T14:46:46.165Z,9.23
2023-03-02T14:49:12.603Z,9.22
2023-03-02T14:51:39.365Z,9.39
2023-03-02T14:54:05.912Z,9.30
2023-03-02T14:56:32.507Z,9.31
2023-03-02T14:58:59.100Z,9.15
2023-03-02T15:01:25.518Z,9.21
2023-03-02T15:03:52.044Z,9.12
2023-03-02T15:06:18.530Z,9.09
2023-03-02T15:08:45.193Z,9.18
2023-03-02T15:11:11.612Z,9.18
2023-03-02T15:13:38.060Z,9.14
2023-03-02T15:16:04.537Z,9.23
2023-03-02T15:18:30.913Z,9.29
2023-03-02T15:20:57.450Z,9.12
2023-03-02T15:23:23.857Z,9.30
2023-03-02T15:25:50.271Z,8.92
2023-03-02T15:28:16.605Z,9.10
2023-03-02T15:30:43.502Z,9.18
2023-03-02T15:33:09.912Z,8.98
2023-03-02T15:35:36.316Z,8.93
2023-03-02T15:38:02.773Z,8.98
2023-03-02T15:40:29.224Z,9.18
2023-03-02T15:42:55.679Z,9.48
2023-03-02T15:45:22.153Z,9.69
2023-03-02T15:47:48.607Z,9.83
2023-03-02T15:50:15.070Z,9.46
2023-03-02T15:52:41.430Z,9.31
2023-03-02T15:55:07.818Z,9.32
2023-03-02T15:57:34.246Z,9.20
2023-03-02T16:00:00.788Z,9.26
2023-03-02T16:02:27.182Z,9.09
2023-03-02T16:04:53.712Z,8.95
2023-03-02T16:07:20.348Z,8.84
2023-03-02T16:09:46.766Z,8.70
2023-03-02T16:12:13.254Z,8.71
2023-03-02T16:14:39.920Z,8.66
2023-03-02T16:17:06.399Z,8.59
2023-03-02T16:19:32.927Z,8.48
2023-03-02T16:21:59.846Z,8.58
2023-03-02T16:24:26.375Z,8.62
2023-03-02T16:26:52.788Z,8.56
2023-03-02T16:29:19.377Z,8.53
2023-03-02T16:31:45.921Z,8.46
2023-03-02T16:34:12.426Z,8.44
2023-03-02T16:36:38.956Z,8.45
2023-03-02T16:39:05.382Z,8.36
2023-03-02T16:41:31.939Z,8.29
2023-03-02T16:43:58.456Z,8.31
2023-03-02T16:46:25.182Z,8.34
2023-03-02T16:48:51.632Z,8.31
2023-03-02T16:51:18.038Z,8.31
2023-03-02T16:53:44.757Z,8.24
2023-03-02T16:56:11.315Z,8.22
2023-03-02T16:58:37.808Z,8.20
2023-03-02T17:01:04.870Z,8.18
2023-03-02T17:03:31.541Z,8.08
2023-03-02T17:05:58.278Z,8.05
2023-03-02T17:08:25.917Z,8.05
2023-03-02T17:10:56.337Z,8.05
2023-03-02T17:13:23.304Z,8.10
2023-03-02T17:15:49.786Z,8.16
2023-03-02T17:18:16.503Z,8.15
2023-03-02T17:20:43.008Z,8.04
2023-03-02T17:23:09.622Z,8.01
2023-03-02T17:25:36.558Z,7.94
2023-03-02T17:28:02.993Z,7.54
2023-03-02T17:30:30.481Z,7.56
2023-03-02T17:32:57.342Z,7.52
2023-03-02T17:35:24.275Z,7.44
2023-03-02T17:37:50.945Z,7.59
2023-03-02T17:40:17.647Z,7.64
2023-03-02T17:42:44.387Z,7.54
2023-03-02T17:45:11.083Z,7.14
2023-03-02T17:47:37.690Z,7.07
2023-03-02T17:50:04.196Z,7.06
2023-03-02T17:52:30.656Z,7.07
2023-03-02T17:54:57.349Z,7.14
2023-03-02T17:57:24.435Z,7.18
2023-03-02T17:59:51.116Z,7.20
2023-03-02T18:02:19.278Z,7.26
2023-03-02T18:04:45.952Z,7.21
2023-03-02T18:07:12.465Z,6.73
2023-03-02T18:09:39.251Z,6.63
2023-03-02T18:12:05.794Z,6.70
2023-03-02T18:14:32.583Z,6.60
2023-03-02T18:17:02.039Z,6.57
2023-03-02T18:19:29.045Z,6.69
2023-03-02T18:21:55.656Z,6.73
2023-03-02T18:24:22.732Z,6.65
2023-03-02T18:26:49.664Z,6.61
2023-03-02T18:29:16.459Z,6.60
2023-03-02T18:31:44.364Z,6.68
2023-03-02T18:34:14.994Z,6.78
2023-03-02T18:36:41.796Z,6.78
2023-03-02T18:39:08.686Z,6.87
2023-03-02T18:41:35.405Z,6.62
2023-03-02T18:44:02.790Z,6.63
2023-03-02T18:46:29.690Z,6.49
2023-03-02T18:48:56.686Z,6.46
2023-03-02T18:51:23.249Z,6.38
2023-03-02T18:53:51.274Z,6.30
2023-03-02T18:56:18.961Z,6.27
2023-03-02T18:58:45.540Z,6.37
2023-03-02T19:01:12.256Z,6.35
2023-03-02T19:03:39.547Z,6.38
2023-03-02T19:06:06.500Z,6.07
2023-03-02T19:08:34.208Z,6.11
2023-03-02T19:11:01.813Z,6.17
2023-03-02T19:13:28.314Z,6.18
2023-03-02T19:15:55.389Z,6.11
2023-03-02T19:18:22.519Z,6.20
2023-03-02T19:20:49.427Z,6.18
2023-03-02T19:23:16.600Z,6.12
2023-03-02T19:25:43.531Z,6.11
2023-03-02T19:28:10.344Z,6.09
2023-03-02T19:30:37.400Z,6.18
2023-03-02T19:33:04.366Z,6.03
2023-03-02T19:35:31.932Z,5.95
2023-03-02T19:38:01.305Z,5.88
2023-03-02T19:40:29.290Z,5.47
2023-03-02T19:42:56.562Z,5.31
2023-03-02T19:45:23.547Z,5.28
2023-03-02T19:47:50.658Z,5.38
2023-03-02T19:50:17.185Z,5.37
2023-03-02T19:52:44.849Z,5.54
2023-03-02T19:55:11.451Z,5.57
2023-03-02T19:57:40.042Z,5.67
2023-03-02T20:00:07.125Z,5.61
2023-03-02T20:02:36.357Z,5.47
2023-03-02T20:05:07.730Z,5.38
2023-03-02T20:07:41.627Z,4.91
2023-03-02T20:10:11.624Z,5.05
2023-03-02T20:12:38.505Z,5.22
2023-03-02T20:15:05.318Z,5.21
2023-03-02T20:17:32.891Z,5.19
2023-03-02T20:20:05.365Z,5.16
2023-03-02T20:22:32.317Z,5.09
2023-03-02T20:24:59.209Z,5.02
2023-03-02T20:27:26.585Z,5.06
2023-03-02T20:29:53.934Z,5.00
2023-03-02T20:32:21.018Z,4.89
2023-03-02T20:34:48.310Z,4.80
2023-03-02T20:37:18.558Z,4.81
2023-03-02T20:39:45.945Z,4.67
2023-03-02T20:42:12.892Z,4.72
2023-03-02T20:44:40.187Z,4.81
2023-03-02T20:47:07.091Z,4.85
2023-03-02T20:49:34.115Z,4.83
2023-03-02T20:52:02.873Z,4.81
2023-03-02T20:54:29.844Z,4.82
2023-03-02T20:56:58.080Z,4.87
2023-03-02T20:59:24.603Z,4.93
2023-03-02T21:01:51.826Z,4.90
2023-03-02T21:04:18.960Z,4.82
2023-03-02T21:06:45.873Z,4.80
2023-03-02T21:09:12.555Z,4.79
2023-03-02T21:11:39.182Z,4.79
2023-03-02T21:14:06.229Z,4.88
2023-03-02T21:16:33.825Z,4.79
2023-03-02T21:19:02.506Z,4.57
2023-03-02T21:21:40.573Z,4.44
2023-03-02T21:24:07.876Z,4.46
2023-03-02T21:26:34.365Z,4.47
2023-03-02T21:29:01.159Z,4.46
2023-03-02T21:31:28.892Z,4.43
2023-03-02T21:33:55.822Z,4.29
2023-03-02T21:36:22.813Z,4.46
2023-03-02T21:38:49.312Z,4.60
2023-03-02T21:41:15.912Z,4.53
2023-03-02T21:43:42.326Z,4.43
2023-03-02T21:46:08.802Z,4.19
2023-03-02T21:48:35.418Z,4.03
2023-03-02T21:51:02.016Z,4.12
2023-03-02T21:53:28.493Z,4.17
2023-03-02T21:55:54.963Z,4.32
2023-03-02T21:58:21.607Z,4.25
2023-03-02T22:00:48.144Z,4.29
2023-03-02T22:03:14.660Z,4.01
2023-03-02T22:05:41.090Z,3.84
2023-03-02T22:08:07.515Z,3.83
2023-03-02T22:10:34.134Z,4.04
2023-03-02T22:13:00.639Z,4.02
2023-03-02T22:15:27.403Z,3.97
2023-03-02T22:17:53.809Z,3.93
2023-03-02T22:20:20.234Z,3.87
2023-03-02T22:22:47.015Z,3.77
2023-03-02T22:25:13.596Z,3.86
2023-03-02T22:27:40.440Z,3.79
2023-03-02T22:30:06.930Z,3.63
2023-03-02T22:32:33.437Z,3.67
2023-03-02T22:34:59.982Z,3.75
2023-03-02T22:37:26.554Z,3.77
2023-03-02T22:39:52.957Z,3.81
2023-03-02T22:42:19.390Z,3.78
2023-03-02T22:44:45.833Z,3.85
2023-03-02T22:47:12.204Z,3.96
2023-03-02T22:49:38.641Z,3.81
2023-03-02T22:52:05.118Z,3.74
2023-03-02T22:54:31.552Z,3.69
2023-03-02T22:56:59.029Z,3.59
2023-03-02T22:59:25.504Z,3.51
2023-03-02T23:01:52.015Z,3.48
2023-03-02T23:04:18.487Z,3.49
2023-03-02T23:06:47.357Z,3.50
2023-03-02T23:09:18.613Z,3.54
2023-03-02T23:11:45.007Z,3.36
2023-03-02T23:14:11.821Z,3.12
2023-03-02T23:16:38.248Z,2.98
2023-03-02T23:19:04.736Z,3.13
2023-03-02T23:21:31.230Z,3.11
2023-03-02T23:23:57.616Z,2.93
2023-03-02T23:26:24.111Z,3.18
2023-03-02T23:28:50.590Z,3.16
2023-03-02T23:31:17.109Z,3.24
2023-03-02T23:33:43.569Z,3.32
2023-03-02T23:36:10.065Z,3.09
2023-03-02T23:38:38.863Z,2.94
2023-03-02T23:41:05.392Z,3.00
2023-03-02T23:43:31.837Z,3.08
2023-03-02T23:45:58.281Z,3.10
2023-03-02T23:48:24.772Z,3.18
2023-03-02T23:50:51.166Z,3.16
2023-03-02T23:53:18.937Z,3.07
2023-03-02T23:55:45.326Z,3.06
2023-03-02T23:58:11.801Z,3.08
